sensor_id;sensor_type;location;lat;lon;timestamp;temperature;humidity
68251;DHT22;55066;51.560;4.642;2023-02-18T00:01:13;10.99;99.99
68251;DHT22;55066;51.560;4.642;2023-02-18T00:03:39;11.06;99.99
68251;DHT22;55066;51.560;4.642;2023-02-18T00:06:19;10.97;99.99
68251;DHT22;55066;51.560;4.642;2023-02-18T00:08:45;10.96;99.99
68251;DHT22;55066;51.560;4.642;2023-02-18T00:11:12;10.96;99.99
68251;DHT22;55066;51.560;4.642;2023-02-18T00:13:37;10.95;99.99
68251;DHT22;55066;51.560;4.642;2023-02-18T00:16:05;10.96;99.99
68251;DHT22;55066;51.560;4.642;2023-02-18T00:18:31;10.97;99.99
68251;DHT22;55066;51.560;4.642;2023-02-18T00:20:58;11.03;99.99
68251;DHT22;55066;51.560;4.642;2023-02-18T00:23:26;11.03;99.99
68251;DHT22;55066;51.560;4.642;2023-02-18T00:25:59;10.97;99.99
68251;DHT22;55066;51.560;4.642;2023-02-18T00:28:25;10.96;99.99
68251;DHT22;55066;51.560;4.642;2023-02-18T00:30:51;10.92;99.99
68251;DHT22;55066;51.560;4.642;2023-02-18T00:33:17;10.97;99.99
68251;DHT22;55066;51.560;4.642;2023-02-18T00:35:42;11.06;99.99
68251;DHT22;55066;51.560;4.642;2023-02-18T00:38:08;11.06;99.99
68251;DHT22;55066;51.560;4.642;2023-02-18T00:40:37;10.97;99.99
68251;DHT22;55066;51.560;4.642;2023-02-18T00:43:02;10.96;99.99
68251;DHT22;55066;51.560;4.642;2023-02-18T00:45:30;10.93;99.99
68251;DHT22;55066;51.560;4.642;2023-02-18T00:47:56;10.95;99.99
68251;DHT22;55066;51.560;4.642;2023-02-18T00:50:22;10.92;99.99
68251;DHT22;55066;51.560;4.642;2023-02-18T00:52:49;10.88;99.99
68251;DHT22;55066;51.560;4.642;2023-02-18T00:55:14;10.92;99.99
68251;DHT22;55066;51.560;4.642;2023-02-18T00:57:40;10.88;99.99
68251;DHT22;55066;51.560;4.642;2023-02-18T01:00:07;10.93;99.99
68251;DHT22;55066;51.560;4.642;2023-02-18T01:02:33;10.91;99.99
68251;DHT22;55066;51.560;4.642;2023-02-18T01:04:59;10.93;99.99
68251;DHT22;55066;51.560;4.642;2023-02-18T01:07:25;10.86;99.99
68251;DHT22;55066;51.560;4.642;2023-02-18T01:09:52;10.96;99.99
68251;DHT22;55066;51.560;4.642;2023-02-18T01:12:18;10.92;99.99
68251;DHT22;55066;51.560;4.642;2023-02-18T01:14:44;10.89;99.99
68251;DHT22;55066;51.560;4.642;2023-02-18T01:17:10;10.89;99.99
68251;DHT22;55066;51.560;4.642;2023-02-18T01:19:38;10.92;99.99
68251;DHT22;55066;51.560;4.642;2023-02-18T01:22:04;10.85;99.99
68251;DHT22;55066;51.560;4.642;2023-02-18T01:24:31;10.89;99.99
68251;DHT22;55066;51.560;4.642;2023-02-18T01:26:56;10.91;99.99
68251;DHT22;55066;51.560;4.642;2023-02-18T01:29:22;10.88;99.99
68251;DHT22;55066;51.560;4.642;2023-02-18T01:31:47;10.86;99.99
68251;DHT22;55066;51.560;4.642;2023-02-18T01:34:14;10.92;99.99
68251;DHT22;55066;51.560;4.642;2023-02-18T01:36:40;10.86;99.99
68251;DHT22;55066;51.560;4.642;2023-02-18T01:39:06;10.85;99.99
68251;DHT22;55066;51.560;4.642;2023-02-18T01:41:32;10.86;99.99
68251;DHT22;55066;51.560;4.642;2023-02-18T01:44:13;10.89;99.99
68251;DHT22;55066;51.560;4.642;2023-02-18T01:46:39;10.88;99.99
68251;DHT22;55066;51.560;4.642;2023-02-18T01:49:30;10.88;99.99
68251;DHT22;55066;51.560;4.642;2023-02-18T01:52:22;10.89;99.99
68251;DHT22;55066;51.560;4.642;2023-02-18T01:54:52;10.91;99.99
68251;DHT22;55066;51.560;4.642;2023-02-18T01:57:26;10.89;99.99
68251;DHT22;55066;51.560;4.642;2023-02-18T02:00:00;10.86;99.99
68251;DHT22;55066;51.560;4.642;2023-02-18T02:02:31;10.88;99.99
68251;DHT22;55066;51.560;4.642;2023-02-18T02:04:57;10.92;99.99
68251;DHT22;55066;51.560;4.642;2023-02-18T02:07:25;10.93;99.99
68251;DHT22;55066;51.560;4.642;2023-02-18T02:09:55;10.92;99.99
68251;DHT22;55066;51.560;4.642;2023-02-18T02:20:31;10.89;99.99
68251;DHT22;55066;51.560;4.642;2023-02-18T02:32:06;10.65;99.99
68251;DHT22;55066;51.560;4.642;2023-02-18T02:34:40;10.72;99.99
68251;DHT22;55066;51.560;4.642;2023-02-18T02:40:00;10.66;99.99
68251;DHT22;55066;51.560;4.642;2023-02-18T02:47:58;10.68;99.99
68251;DHT22;55066;51.560;4.642;2023-02-18T02:50:56;10.66;99.99
68251;DHT22;55066;51.560;4.642;2023-02-18T02:53:29;10.72;99.99
68251;DHT22;55066;51.560;4.642;2023-02-18T02:55:55;10.65;99.99
68251;DHT22;55066;51.560;4.642;2023-02-18T02:58:23;10.65;99.99
68251;DHT22;55066;51.560;4.642;2023-02-18T03:01:02;10.69;99.99
68251;DHT22;55066;51.560;4.642;2023-02-18T03:03:42;10.71;99.99
68251;DHT22;55066;51.560;4.642;2023-02-18T03:12:05;10.65;99.99
68251;DHT22;55066;51.560;4.642;2023-02-18T03:15:05;10.65;99.99
68251;DHT22;55066;51.560;4.642;2023-02-18T03:17:37;10.62;99.99
68251;DHT22;55066;51.560;4.642;2023-02-18T03:20:27;10.65;99.99
68251;DHT22;55066;51.560;4.642;2023-02-18T03:22:57;10.64;99.99
68251;DHT22;55066;51.560;4.642;2023-02-18T03:25:24;10.66;99.99
68251;DHT22;55066;51.560;4.642;2023-02-18T03:27:58;10.61;99.99
68251;DHT22;55066;51.560;4.642;2023-02-18T03:30:28;10.59;99.99
68251;DHT22;55066;51.560;4.642;2023-02-18T03:33:00;10.59;99.99
68251;DHT22;55066;51.560;4.642;2023-02-18T03:35:29;10.51;99.99
68251;DHT22;55066;51.560;4.642;2023-02-18T03:38:21;10.51;99.99
68251;DHT22;55066;51.560;4.642;2023-02-18T03:40:49;10.52;99.99
68251;DHT22;55066;51.560;4.642;2023-02-18T03:43:15;10.58;99.99
68251;DHT22;55066;51.560;4.642;2023-02-18T03:45:40;10.48;99.99
68251;DHT22;55066;51.560;4.642;2023-02-18T03:48:06;10.51;99.99
68251;DHT22;55066;51.560;4.642;2023-02-18T03:50:32;10.51;99.99
68251;DHT22;55066;51.560;4.642;2023-02-18T03:52:57;10.45;99.99
68251;DHT22;55066;51.560;4.642;2023-02-18T03:55:23;10.42;99.99
68251;DHT22;55066;51.560;4.642;2023-02-18T03:57:50;10.48;99.99
68251;DHT22;55066;51.560;4.642;2023-02-18T04:00:16;10.49;99.99
68251;DHT22;55066;51.560;4.642;2023-02-18T04:02:42;10.48;99.99
68251;DHT22;55066;51.560;4.642;2023-02-18T04:05:10;10.41;99.99
68251;DHT22;55066;51.560;4.642;2023-02-18T04:07:35;10.41;99.99
68251;DHT22;55066;51.560;4.642;2023-02-18T04:10:03;10.38;99.99
68251;DHT22;55066;51.560;4.642;2023-02-18T04:12:29;10.40;99.99
68251;DHT22;55066;51.560;4.642;2023-02-18T04:14:55;10.42;99.99
68251;DHT22;55066;51.560;4.642;2023-02-18T04:17:21;10.36;99.99
68251;DHT22;55066;51.560;4.642;2023-02-18T04:19:48;10.45;99.99
68251;DHT22;55066;51.560;4.642;2023-02-18T04:22:14;10.40;99.99
68251;DHT22;55066;51.560;4.642;2023-02-18T04:24:40;10.37;99.99
68251;DHT22;55066;51.560;4.642;2023-02-18T04:27:06;10.31;99.99
68251;DHT22;55066;51.560;4.642;2023-02-18T04:29:31;10.36;99.99
68251;DHT22;55066;51.560;4.642;2023-02-18T04:31:57;10.31;99.99
68251;DHT22;55066;51.560;4.642;2023-02-18T04:34:23;10.38;99.99
68251;DHT22;55066;51.560;4.642;2023-02-18T04:36:49;10.33;99.99
68251;DHT22;55066;51.560;4.642;2023-02-18T04:39:16;10.38;99.99
68251;DHT22;55066;51.560;4.642;2023-02-18T04:41:43;10.36;99.99
68251;DHT22;55066;51.560;4.642;2023-02-18T04:44:10;10.30;99.99
68251;DHT22;55066;51.560;4.642;2023-02-18T04:46:38;10.28;99.99
68251;DHT22;55066;51.560;4.642;2023-02-18T04:49:06;10.28;99.99
68251;DHT22;55066;51.560;4.642;2023-02-18T04:51:35;10.31;99.99
68251;DHT22;55066;51.560;4.642;2023-02-18T04:54:02;10.33;99.99
68251;DHT22;55066;51.560;4.642;2023-02-18T04:56:28;10.33;99.99
68251;DHT22;55066;51.560;4.642;2023-02-18T04:58:54;10.33;99.99
68251;DHT22;55066;51.560;4.642;2023-02-18T05:01:23;10.37;99.99
68251;DHT22;55066;51.560;4.642;2023-02-18T05:03:48;10.31;99.99
68251;DHT22;55066;51.560;4.642;2023-02-18T05:06:14;10.31;99.99
68251;DHT22;55066;51.560;4.642;2023-02-18T05:08:40;10.36;99.99
68251;DHT22;55066;51.560;4.642;2023-02-18T05:11:09;10.33;99.99
68251;DHT22;55066;51.560;4.642;2023-02-18T05:13:36;10.28;99.99
68251;DHT22;55066;51.560;4.642;2023-02-18T05:16:02;10.28;99.99
68251;DHT22;55066;51.560;4.642;2023-02-18T05:18:29;10.27;99.99
68251;DHT22;55066;51.560;4.642;2023-02-18T05:20:54;10.28;99.99
68251;DHT22;55066;51.560;4.642;2023-02-18T05:23:20;10.31;99.99
68251;DHT22;55066;51.560;4.642;2023-02-18T05:25:46;10.25;99.99
68251;DHT22;55066;51.560;4.642;2023-02-18T05:28:12;10.24;99.99
68251;DHT22;55066;51.560;4.642;2023-02-18T05:30:38;10.34;99.99
68251;DHT22;55066;51.560;4.642;2023-02-18T05:33:03;10.33;99.99
68251;DHT22;55066;51.560;4.642;2023-02-18T05:35:29;10.28;99.99
68251;DHT22;55066;51.560;4.642;2023-02-18T05:37:54;10.30;99.99
68251;DHT22;55066;51.560;4.642;2023-02-18T05:40:20;10.20;99.99
68251;DHT22;55066;51.560;4.642;2023-02-18T05:42:46;10.25;99.99
68251;DHT22;55066;51.560;4.642;2023-02-18T05:45:12;10.21;99.99
68251;DHT22;55066;51.560;4.642;2023-02-18T05:47:39;10.20;99.99
68251;DHT22;55066;51.560;4.642;2023-02-18T05:50:06;10.17;99.99
68251;DHT22;55066;51.560;4.642;2023-02-18T05:52:31;10.18;99.99
68251;DHT22;55066;51.560;4.642;2023-02-18T05:54:57;10.14;99.99
68251;DHT22;55066;51.560;4.642;2023-02-18T05:57:23;10.14;99.99
68251;DHT22;55066;51.560;4.642;2023-02-18T05:59:48;10.11;99.99
68251;DHT22;55066;51.560;4.642;2023-02-18T06:02:14;10.18;99.99
68251;DHT22;55066;51.560;4.642;2023-02-18T06:04:40;10.21;99.99
68251;DHT22;55066;51.560;4.642;2023-02-18T06:07:07;10.18;99.99
68251;DHT22;55066;51.560;4.642;2023-02-18T06:09:33;10.17;99.99
68251;DHT22;55066;51.560;4.642;2023-02-18T06:11:58;10.10;99.99
68251;DHT22;55066;51.560;4.642;2023-02-18T06:14:25;10.07;99.99
68251;DHT22;55066;51.560;4.642;2023-02-18T06:16:51;10.07;99.99
68251;DHT22;55066;51.560;4.642;2023-02-18T06:19:16;10.10;99.99
68251;DHT22;55066;51.560;4.642;2023-02-18T06:21:42;10.07;99.99
68251;DHT22;55066;51.560;4.642;2023-02-18T06:24:08;10.04;99.99
68251;DHT22;55066;51.560;4.642;2023-02-18T06:26:34;10.13;99.99
68251;DHT22;55066;51.560;4.642;2023-02-18T06:29:02;10.06;99.99
68251;DHT22;55066;51.560;4.642;2023-02-18T06:31:31;10.04;99.99
68251;DHT22;55066;51.560;4.642;2023-02-18T06:33:57;9.97;99.99
68251;DHT22;55066;51.560;4.642;2023-02-18T06:36:22;9.96;99.99
68251;DHT22;55066;51.560;4.642;2023-02-18T06:38:48;9.87;99.99
68251;DHT22;55066;51.560;4.642;2023-02-18T06:41:14;9.94;99.99
68251;DHT22;55066;51.560;4.642;2023-02-18T06:43:40;9.86;99.99
68251;DHT22;55066;51.560;4.642;2023-02-18T06:46:06;9.90;99.99
68251;DHT22;55066;51.560;4.642;2023-02-18T06:48:33;9.93;99.99
68251;DHT22;55066;51.560;4.642;2023-02-18T06:50:59;9.96;99.99
68251;DHT22;55066;51.560;4.642;2023-02-18T06:53:25;9.87;99.99
68251;DHT22;55066;51.560;4.642;2023-02-18T06:55:52;9.87;99.99
68251;DHT22;55066;51.560;4.642;2023-02-18T06:58:17;9.79;99.99
68251;DHT22;55066;51.560;4.642;2023-02-18T07:00:43;9.93;99.99
68251;DHT22;55066;51.560;4.642;2023-02-18T07:03:11;9.82;99.99
68251;DHT22;55066;51.560;4.642;2023-02-18T07:05:37;9.81;99.99
68251;DHT22;55066;51.560;4.642;2023-02-18T07:08:03;9.89;99.99
68251;DHT22;55066;51.560;4.642;2023-02-18T07:10:28;9.85;99.99
68251;DHT22;55066;51.560;4.642;2023-02-18T07:12:54;9.73;99.99
68251;DHT22;55066;51.560;4.642;2023-02-18T07:15:20;9.72;99.99
68251;DHT22;55066;51.560;4.642;2023-02-18T07:17:49;9.73;99.99
68251;DHT22;55066;51.560;4.642;2023-02-18T07:20:16;9.85;99.99
68251;DHT22;55066;51.560;4.642;2023-02-18T07:22:42;9.79;99.99
68251;DHT22;55066;51.560;4.642;2023-02-18T07:25:09;9.71;99.99
68251;DHT22;55066;51.560;4.642;2023-02-18T07:27:35;9.68;99.99
68251;DHT22;55066;51.560;4.642;2023-02-18T07:30:00;9.81;99.99
68251;DHT22;55066;51.560;4.642;2023-02-18T07:32:27;9.72;99.99
68251;DHT22;55066;51.560;4.642;2023-02-18T07:34:53;9.76;99.99
68251;DHT22;55066;51.560;4.642;2023-02-18T07:37:19;9.81;99.99
68251;DHT22;55066;51.560;4.642;2023-02-18T07:39:45;9.68;99.99
68251;DHT22;55066;51.560;4.642;2023-02-18T07:42:11;9.81;99.99
68251;DHT22;55066;51.560;4.642;2023-02-18T07:44:40;9.76;99.99
68251;DHT22;55066;51.560;4.642;2023-02-18T07:47:07;9.76;99.99
68251;DHT22;55066;51.560;4.642;2023-02-18T07:49:35;9.75;99.99
68251;DHT22;55066;51.560;4.642;2023-02-18T07:52:00;9.85;99.99
68251;DHT22;55066;51.560;4.642;2023-02-18T07:54:27;9.87;99.99
68251;DHT22;55066;51.560;4.642;2023-02-18T07:56:54;9.82;99.99
68251;DHT22;55066;51.560;4.642;2023-02-18T07:59:20;9.85;99.99
68251;DHT22;55066;51.560;4.642;2023-02-18T08:01:46;9.90;99.99
68251;DHT22;55066;51.560;4.642;2023-02-18T08:04:12;9.90;99.99
68251;DHT22;55066;51.560;4.642;2023-02-18T08:06:43;9.89;99.99
68251;DHT22;55066;51.560;4.642;2023-02-18T08:09:13;9.89;99.99
68251;DHT22;55066;51.560;4.642;2023-02-18T08:11:40;9.93;99.99
68251;DHT22;55066;51.560;4.642;2023-02-18T08:14:06;9.99;99.99
68251;DHT22;55066;51.560;4.642;2023-02-18T08:16:32;10.04;99.99
68251;DHT22;55066;51.560;4.642;2023-02-18T08:18:59;10.03;99.99
68251;DHT22;55066;51.560;4.642;2023-02-18T08:21:25;10.07;99.99
68251;DHT22;55066;51.560;4.642;2023-02-18T08:23:52;10.03;99.99
68251;DHT22;55066;51.560;4.642;2023-02-18T08:26:19;9.99;99.99
68251;DHT22;55066;51.560;4.642;2023-02-18T08:28:47;9.99;99.99
68251;DHT22;55066;51.560;4.642;2023-02-18T08:31:25;9.97;99.99
68251;DHT22;55066;51.560;4.642;2023-02-18T08:33:52;9.93;99.99
68251;DHT22;55066;51.560;4.642;2023-02-18T08:36:18;10.02;99.99
68251;DHT22;55066;51.560;4.642;2023-02-18T08:38:44;9.87;99.99
68251;DHT22;55066;51.560;4.642;2023-02-18T08:41:09;9.82;99.99
68251;DHT22;55066;51.560;4.642;2023-02-18T08:43:35;9.92;99.99
68251;DHT22;55066;51.560;4.642;2023-02-18T08:46:01;9.89;99.99
68251;DHT22;55066;51.560;4.642;2023-02-18T08:48:27;9.97;99.99
68251;DHT22;55066;51.560;4.642;2023-02-18T08:50:53;10.02;99.99
68251;DHT22;55066;51.560;4.642;2023-02-18T08:53:19;9.97;99.99
68251;DHT22;55066;51.560;4.642;2023-02-18T08:55:44;10.03;99.99
68251;DHT22;55066;51.560;4.642;2023-02-18T08:58:10;10.09;99.99
68251;DHT22;55066;51.560;4.642;2023-02-18T09:00:37;10.06;99.99
68251;DHT22;55066;51.560;4.642;2023-02-18T09:03:03;10.06;99.99
68251;DHT22;55066;51.560;4.642;2023-02-18T09:05:29;10.03;99.99
68251;DHT22;55066;51.560;4.642;2023-02-18T09:07:54;10.02;99.99
68251;DHT22;55066;51.560;4.642;2023-02-18T09:10:21;10.09;99.99
68251;DHT22;55066;51.560;4.642;2023-02-18T09:12:47;10.09;99.99
68251;DHT22;55066;51.560;4.642;2023-02-18T09:15:12;10.06;99.99
68251;DHT22;55066;51.560;4.642;2023-02-18T09:17:38;10.14;99.99
68251;DHT22;55066;51.560;4.642;2023-02-18T09:20:04;10.18;99.99
68251;DHT22;55066;51.560;4.642;2023-02-18T09:22:30;10.20;99.99
68251;DHT22;55066;51.560;4.642;2023-02-18T09:24:57;10.18;99.99
68251;DHT22;55066;51.560;4.642;2023-02-18T09:27:24;10.22;99.99
68251;DHT22;55066;51.560;4.642;2023-02-18T09:29:49;10.24;99.99
68251;DHT22;55066;51.560;4.642;2023-02-18T09:32:17;10.17;99.99
68251;DHT22;55066;51.560;4.642;2023-02-18T09:34:43;10.31;99.99
68251;DHT22;55066;51.560;4.642;2023-02-18T09:37:09;10.40;99.99
68251;DHT22;55066;51.560;4.642;2023-02-18T09:39:35;10.55;99.99
68251;DHT22;55066;51.560;4.642;2023-02-18T09:42:03;10.59;99.99
68251;DHT22;55066;51.560;4.642;2023-02-18T09:44:37;10.75;99.99
68251;DHT22;55066;51.560;4.642;2023-02-18T09:47:35;10.69;99.99
68251;DHT22;55066;51.560;4.642;2023-02-18T09:52:34;10.62;99.99
68251;DHT22;55066;51.560;4.642;2023-02-18T09:55:34;10.64;99.99
68251;DHT22;55066;51.560;4.642;2023-02-18T09:58:20;10.64;99.99
68251;DHT22;55066;51.560;4.642;2023-02-18T10:00:49;10.73;99.99
68251;DHT22;55066;51.560;4.642;2023-02-18T10:03:21;10.71;99.99
68251;DHT22;55066;51.560;4.642;2023-02-18T10:08:47;10.86;99.99
68251;DHT22;55066;51.560;4.642;2023-02-18T10:13:48;10.85;99.99
68251;DHT22;55066;51.560;4.642;2023-02-18T10:16:17;10.85;99.99
68251;DHT22;55066;51.560;4.642;2023-02-18T10:18:45;10.88;99.99
68251;DHT22;55066;51.560;4.642;2023-02-18T10:21:28;10.85;99.99
68251;DHT22;55066;51.560;4.642;2023-02-18T10:24:02;10.89;99.99
68251;DHT22;55066;51.560;4.642;2023-02-18T10:26:30;10.92;99.99
68251;DHT22;55066;51.560;4.642;2023-02-18T10:28:56;10.92;99.99
68251;DHT22;55066;51.560;4.642;2023-02-18T10:31:36;10.97;99.99
68251;DHT22;55066;51.560;4.642;2023-02-18T10:34:59;11.03;99.99
68251;DHT22;55066;51.560;4.642;2023-02-18T10:40:16;11.10;99.99
68251;DHT22;55066;51.560;4.642;2023-02-18T10:51:33;11.22;99.99
68251;DHT22;55066;51.560;4.642;2023-02-18T10:54:00;11.23;99.99
68251;DHT22;55066;51.560;4.642;2023-02-18T10:56:40;11.26;99.99
68251;DHT22;55066;51.560;4.642;2023-02-18T11:01:42;11.34;99.99
68251;DHT22;55066;51.560;4.642;2023-02-18T11:04:44;11.42;99.99
68251;DHT22;55066;51.560;4.642;2023-02-18T11:07:15;11.51;99.60
68251;DHT22;55066;51.560;4.642;2023-02-18T11:09:53;11.64;99.96
68251;DHT22;55066;51.560;4.642;2023-02-18T11:17:33;11.60;99.99
68251;DHT22;55066;51.560;4.642;2023-02-18T11:20:01;11.55;99.99
68251;DHT22;55066;51.560;4.642;2023-02-18T11:22:30;11.64;99.99
68251;DHT22;55066;51.560;4.642;2023-02-18T11:25:00;11.74;99.99
68251;DHT22;55066;51.560;4.642;2023-02-18T11:27:40;11.78;99.99
68251;DHT22;55066;51.560;4.642;2023-02-18T11:32:43;11.83;99.99
68251;DHT22;55066;51.560;4.642;2023-02-18T11:35:17;11.90;99.82
68251;DHT22;55066;51.560;4.642;2023-02-18T11:37:44;12.07;99.35
68251;DHT22;55066;51.560;4.642;2023-02-18T11:40:30;12.37;97.99
68251;DHT22;55066;51.560;4.642;2023-02-18T11:43:03;12.41;98.63
68251;DHT22;55066;51.560;4.642;2023-02-18T11:45:33;12.44;98.58
68251;DHT22;55066;51.560;4.642;2023-02-18T11:48:07;12.60;98.28
68251;DHT22;55066;51.560;4.642;2023-02-18T11:50:34;12.81;97.52
68251;DHT22;55066;51.560;4.642;2023-02-18T11:52:59;12.71;96.31
68251;DHT22;55066;51.560;4.642;2023-02-18T11:55:28;12.96;96.96
68251;DHT22;55066;51.560;4.642;2023-02-18T11:58:04;13.13;96.35
68251;DHT22;55066;51.560;4.642;2023-02-18T12:00:47;12.72;98.22
68251;DHT22;55066;51.560;4.642;2023-02-18T12:05:49;12.74;97.71
68251;DHT22;55066;51.560;4.642;2023-02-18T12:08:27;12.89;98.15
68251;DHT22;55066;51.560;4.642;2023-02-18T12:10:58;12.67;97.83
68251;DHT22;55066;51.560;4.642;2023-02-18T12:13:34;13.16;96.78
68251;DHT22;55066;51.560;4.642;2023-02-18T12:16:12;13.06;96.96
68251;DHT22;55066;51.560;4.642;2023-02-18T12:19:42;13.09;97.59
68251;DHT22;55066;51.560;4.642;2023-02-18T12:29:57;12.99;96.43
68251;DHT22;55066;51.560;4.642;2023-02-18T12:35:43;13.00;96.94
68251;DHT22;55066;51.560;4.642;2023-02-18T12:40:50;12.68;99.89
68251;DHT22;55066;51.560;4.642;2023-02-18T12:43:32;12.55;98.54
68251;DHT22;55066;51.560;4.642;2023-02-18T12:49:00;12.43;99.37
68251;DHT22;55066;51.560;4.642;2023-02-18T12:54:46;12.37;99.85
68251;DHT22;55066;51.560;4.642;2023-02-18T13:00:18;12.36;98.85
68251;DHT22;55066;51.560;4.642;2023-02-18T13:05:43;12.51;98.97
68251;DHT22;55066;51.560;4.642;2023-02-18T13:08:29;12.51;98.55
68251;DHT22;55066;51.560;4.642;2023-02-18T13:11:00;12.99;98.39
68251;DHT22;55066;51.560;4.642;2023-02-18T13:13:41;13.19;97.16
68251;DHT22;55066;51.560;4.642;2023-02-18T13:16:12;13.09;97.29
68251;DHT22;55066;51.560;4.642;2023-02-18T13:19:29;13.19;97.22
68251;DHT22;55066;51.560;4.642;2023-02-18T13:21:28;13.24;98.21
68251;DHT22;55066;51.560;4.642;2023-02-18T13:24:05;13.18;96.37
68251;DHT22;55066;51.560;4.642;2023-02-18T13:26:32;13.32;97.56
68251;DHT22;55066;51.560;4.642;2023-02-18T13:34:31;13.78;96.75
68251;DHT22;55066;51.560;4.642;2023-02-18T13:39:36;13.81;96.66
68251;DHT22;55066;51.560;4.642;2023-02-18T13:47:44;13.71;97.37
68251;DHT22;55066;51.560;4.642;2023-02-18T13:55:41;13.47;98.23
68251;DHT22;55066;51.560;4.642;2023-02-18T13:58:18;13.51;97.73
68251;DHT22;55066;51.560;4.642;2023-02-18T14:01:35;13.50;97.50
68251;DHT22;55066;51.560;4.642;2023-02-18T14:08:44;13.71;96.60
68251;DHT22;55066;51.560;4.642;2023-02-18T14:13:43;13.88;98.64
68251;DHT22;55066;51.560;4.642;2023-02-18T14:16:11;13.65;96.09
68251;DHT22;55066;51.560;4.642;2023-02-18T14:28:53;13.60;96.89
68251;DHT22;55066;51.560;4.642;2023-02-18T14:31:33;13.64;98.39
68251;DHT22;55066;51.560;4.642;2023-02-18T14:36:48;13.43;96.50
68251;DHT22;55066;51.560;4.642;2023-02-18T14:39:51;13.67;99.34
68251;DHT22;55066;51.560;4.642;2023-02-18T14:42:55;13.71;99.75
68251;DHT22;55066;51.560;4.642;2023-02-18T14:46:01;13.53;98.87
68251;DHT22;55066;51.560;4.642;2023-02-18T14:51:42;13.39;98.60
68251;DHT22;55066;51.560;4.642;2023-02-18T14:54:17;13.42;97.37
68251;DHT22;55066;51.560;4.642;2023-02-18T14:57:12;13.67;99.71
68251;DHT22;55066;51.560;4.642;2023-02-18T14:59:41;13.53;96.53
68251;DHT22;55066;51.560;4.642;2023-02-18T15:02:20;13.48;96.79
68251;DHT22;55066;51.560;4.642;2023-02-18T15:04:47;13.43;96.24
68251;DHT22;55066;51.560;4.642;2023-02-18T15:07:20;13.47;98.93
68251;DHT22;55066;51.560;4.642;2023-02-18T15:09:48;13.43;98.72
68251;DHT22;55066;51.560;4.642;2023-02-18T15:12:17;13.33;99.11
68251;DHT22;55066;51.560;4.642;2023-02-18T15:14:46;13.27;99.99
68251;DHT22;55066;51.560;4.642;2023-02-18T15:17:18;13.06;98.62
68251;DHT22;55066;51.560;4.642;2023-02-18T15:20:05;13.00;97.78
68251;DHT22;55066;51.560;4.642;2023-02-18T15:22:33;13.06;99.13
68251;DHT22;55066;51.560;4.642;2023-02-18T15:25:01;12.99;98.99
68251;DHT22;55066;51.560;4.642;2023-02-18T15:27:29;13.05;99.20
68251;DHT22;55066;51.560;4.642;2023-02-18T15:32:44;12.91;97.44
68251;DHT22;55066;51.560;4.642;2023-02-18T15:35:15;12.89;97.76
68251;DHT22;55066;51.560;4.642;2023-02-18T15:37:44;12.95;99.61
68251;DHT22;55066;51.560;4.642;2023-02-18T15:40:17;13.06;99.99
68251;DHT22;55066;51.560;4.642;2023-02-18T15:42:48;12.93;99.41
68251;DHT22;55066;51.560;4.642;2023-02-18T15:45:19;12.93;99.55
68251;DHT22;55066;51.560;4.642;2023-02-18T15:47:55;12.78;99.99
68251;DHT22;55066;51.560;4.642;2023-02-18T15:52:53;12.89;99.99
68251;DHT22;55066;51.560;4.642;2023-02-18T15:55:40;12.84;99.99
68251;DHT22;55066;51.560;4.642;2023-02-18T15:58:17;12.75;99.99
68251;DHT22;55066;51.560;4.642;2023-02-18T16:00:48;12.61;99.99
68251;DHT22;55066;51.560;4.642;2023-02-18T16:03:22;12.45;99.99
68251;DHT22;55066;51.560;4.642;2023-02-18T16:05:49;12.64;99.99
68251;DHT22;55066;51.560;4.642;2023-02-18T16:08:24;12.37;99.99
68251;DHT22;55066;51.560;4.642;2023-02-18T16:10:55;12.47;99.99
68251;DHT22;55066;51.560;4.642;2023-02-18T16:13:23;12.36;99.99
68251;DHT22;55066;51.560;4.642;2023-02-18T16:15:51;12.55;99.99
68251;DHT22;55066;51.560;4.642;2023-02-18T16:21:02;12.34;99.99
68251;DHT22;55066;51.560;4.642;2023-02-18T16:23:55;12.58;99.99
68251;DHT22;55066;51.560;4.642;2023-02-18T16:26:29;12.47;99.99
68251;DHT22;55066;51.560;4.642;2023-02-18T16:29:10;12.40;99.99
68251;DHT22;55066;51.560;4.642;2023-02-18T16:31:36;12.38;99.99
68251;DHT22;55066;51.560;4.642;2023-02-18T16:34:02;12.41;99.99
68251;DHT22;55066;51.560;4.642;2023-02-18T16:36:27;12.23;99.99
68251;DHT22;55066;51.560;4.642;2023-02-18T16:38:54;12.13;99.99
68251;DHT22;55066;51.560;4.642;2023-02-18T16:41:23;12.02;99.99
68251;DHT22;55066;51.560;4.642;2023-02-18T16:43:50;12.13;99.99
68251;DHT22;55066;51.560;4.642;2023-02-18T16:46:20;12.20;99.99
68251;DHT22;55066;51.560;4.642;2023-02-18T16:48:49;11.96;99.99
68251;DHT22;55066;51.560;4.642;2023-02-18T16:51:19;11.93;99.99
68251;DHT22;55066;51.560;4.642;2023-02-18T16:53:45;11.90;99.99
68251;DHT22;55066;51.560;4.642;2023-02-18T16:56:20;11.99;99.99
68251;DHT22;55066;51.560;4.642;2023-02-18T16:58:46;11.90;99.99
68251;DHT22;55066;51.560;4.642;2023-02-18T17:01:30;11.88;99.99
68251;DHT22;55066;51.560;4.642;2023-02-18T17:03:57;11.82;99.99
68251;DHT22;55066;51.560;4.642;2023-02-18T17:06:23;11.75;99.99
68251;DHT22;55066;51.560;4.642;2023-02-18T17:08:49;11.68;99.99
68251;DHT22;55066;51.560;4.642;2023-02-18T17:11:38;11.79;99.99
68251;DHT22;55066;51.560;4.642;2023-02-18T17:14:03;11.78;99.99
68251;DHT22;55066;51.560;4.642;2023-02-18T17:16:30;11.79;99.99
68251;DHT22;55066;51.560;4.642;2023-02-18T17:18:56;11.68;99.99
68251;DHT22;55066;51.560;4.642;2023-02-18T17:21:24;11.68;99.99
68251;DHT22;55066;51.560;4.642;2023-02-18T17:23:52;11.71;99.99
68251;DHT22;55066;51.560;4.642;2023-02-18T17:26:23;11.75;99.99
68251;DHT22;55066;51.560;4.642;2023-02-18T17:28:49;11.71;99.99
68251;DHT22;55066;51.560;4.642;2023-02-18T17:31:20;11.72;99.99
68251;DHT22;55066;51.560;4.642;2023-02-18T17:33:48;11.74;99.99
68251;DHT22;55066;51.560;4.642;2023-02-18T17:36:15;11.65;99.99
68251;DHT22;55066;51.560;4.642;2023-02-18T17:38:41;11.69;99.99
68251;DHT22;55066;51.560;4.642;2023-02-18T17:41:06;11.67;99.99
68251;DHT22;55066;51.560;4.642;2023-02-18T17:43:32;11.57;99.99
68251;DHT22;55066;51.560;4.642;2023-02-18T17:45:59;11.71;99.99
68251;DHT22;55066;51.560;4.642;2023-02-18T17:48:25;11.77;99.99
68251;DHT22;55066;51.560;4.642;2023-02-18T17:50:52;11.65;99.99
68251;DHT22;55066;51.560;4.642;2023-02-18T17:53:18;11.77;99.99
68251;DHT22;55066;51.560;4.642;2023-02-18T17:55:52;11.77;99.99
68251;DHT22;55066;51.560;4.642;2023-02-18T17:58:17;11.74;99.99
68251;DHT22;55066;51.560;4.642;2023-02-18T18:00:47;11.64;99.99
68251;DHT22;55066;51.560;4.642;2023-02-18T18:03:14;11.61;99.99
68251;DHT22;55066;51.560;4.642;2023-02-18T18:05:41;11.60;99.99
68251;DHT22;55066;51.560;4.642;2023-02-18T18:08:08;11.69;99.99
68251;DHT22;55066;51.560;4.642;2023-02-18T18:10:39;11.64;99.99